sensor_id;sensor_type;location;lat;lon;timestamp;pressure;altitude;pressure_sealevel;temperature;humidity
75656;BME280;64252;51.094;13.714;2022-11-13T00:00:12;101911.78;;;2.69;100.00
75656;BME280;64252;51.094;13.714;2022-11-13T00:02:56;101909.19;;;2.77;100.00
75656;BME280;64252;51.094;13.714;2022-11-13T00:05:40;101917.75;;;2.81;100.00
75656;BME280;64252;51.094;13.714;2022-11-13T00:08:26;101912.13;;;2.86;100.00
75656;BME280;64252;51.094;13.714;2022-11-13T00:11:16;101903.13;;;2.89;100.00
75656;BME280;64252;51.094;13.714;2022-11-13T00:14:04;101898.25;;;2.99;100.00
75656;BME280;64252;51.094;13.714;2022-11-13T00:16:48;101902.72;;;3.00;100.00
75656;BME280;64252;51.094;13.714;2022-11-13T00:19:32;101897.41;;;2.99;100.00
75656;BME280;64252;51.094;13.714;2022-11-13T00:22:16;101894.00;;;3.02;100.00
75656;BME280;64252;51.094;13.714;2022-11-13T00:25:00;101894.56;;;3.04;100.00
75656;BME280;64252;51.094;13.714;2022-11-13T00:27:43;101895.09;;;3.06;100.00
75656;BME280;64252;51.094;13.714;2022-11-13T00:30:27;101882.50;;;3.08;100.00
75656;BME280;64252;51.094;13.714;2022-11-13T00:33:11;101885.81;;;3.11;100.00
75656;BME280;64252;51.094;13.714;2022-11-13T00:36:03;101874.47;;;3.02;100.00
75656;BME280;64252;51.094;13.714;2022-11-13T00:38:48;101879.34;;;2.96;100.00
75656;BME280;64252;51.094;13.714;2022-11-13T00:41:32;101874.94;;;2.90;100.00
75656;BME280;64252;51.094;13.714;2022-11-13T00:44:16;101868.06;;;2.83;100.00
75656;BME280;64252;51.094;13.714;2022-11-13T00:47:00;101875.94;;;2.81;100.00
75656;BME280;64252;51.094;13.714;2022-11-13T00:49:44;101876.53;;;2.78;100.00
75656;BME280;64252;51.094;13.714;2022-11-13T00:52:29;101882.91;;;2.78;100.00
75656;BME280;64252;51.094;13.714;2022-11-13T00:55:13;101891.00;;;2.80;100.00
75656;BME280;64252;51.094;13.714;2022-11-13T00:57:57;101883.69;;;2.84;100.00
75656;BME280;64252;51.094;13.714;2022-11-13T01:00:43;101893.44;;;2.86;100.00
75656;BME280;64252;51.094;13.714;2022-11-13T01:03:28;101881.72;;;2.84;100.00
75656;BME280;64252;51.094;13.714;2022-11-13T01:06:18;101877.28;;;2.83;100.00
75656;BME280;64252;51.094;13.714;2022-11-13T01:09:03;101886.03;;;2.77;100.00
75656;BME280;64252;51.094;13.714;2022-11-13T01:11:47;101876.53;;;2.78;100.00
75656;BME280;64252;51.094;13.714;2022-11-13T01:14:31;101874.88;;;2.77;100.00
75656;BME280;64252;51.094;13.714;2022-11-13T01:17:15;101873.97;;;2.81;100.00
75656;BME280;64252;51.094;13.714;2022-11-13T01:19:59;101872.38;;;2.75;100.00
75656;BME280;64252;51.094;13.714;2022-11-13T01:22:43;101859.81;;;2.78;100.00
75656;BME280;64252;51.094;13.714;2022-11-13T01:25:27;101849.22;;;2.75;100.00
75656;BME280;64252;51.094;13.714;2022-11-13T01:28:12;101857.09;;;2.73;100.00
75656;BME280;64252;51.094;13.714;2022-11-13T01:30:55;101866.88;;;2.70;100.00
75656;BME280;64252;51.094;13.714;2022-11-13T01:33:39;101857.09;;;2.73;100.00
75656;BME280;64252;51.094;13.714;2022-11-13T01:36:25;101855.41;;;2.72;100.00
75656;BME280;64252;51.094;13.714;2022-11-13T01:39:11;101850.75;;;2.67;100.00
75656;BME280;64252;51.094;13.714;2022-11-13T01:41:55;101845.69;;;2.69;100.00
75656;BME280;64252;51.094;13.714;2022-11-13T01:44:50;101831.00;;;2.63;100.00
75656;BME280;64252;51.094;13.714;2022-11-13T01:47:35;101831.16;;;2.53;100.00
75656;BME280;64252;51.094;13.714;2022-11-13T01:50:19;101843.41;;;2.52;100.00
75656;BME280;64252;51.094;13.714;2022-11-13T01:53:03;101848.44;;;2.50;100.00
75656;BME280;64252;51.094;13.714;2022-11-13T01:55:48;101833.47;;;2.46;100.00
75656;BME280;64252;51.094;13.714;2022-11-13T01:58:32;101833.78;;;2.45;100.00
75656;BME280;64252;51.094;13.714;2022-11-13T02:01:16;101830.44;;;2.43;100.00
75656;BME280;64252;51.094;13.714;2022-11-13T02:04:01;101816.78;;;2.41;100.00
75656;BME280;64252;51.094;13.714;2022-11-13T02:06:50;101821.25;;;2.42;100.00
75656;BME280;64252;51.094;13.714;2022-11-13T02:09:47;101807.94;;;2.39;100.00
75656;BME280;64252;51.094;13.714;2022-11-13T02:12:36;101814.41;;;2.35;100.00
75656;BME280;64252;51.094;13.714;2022-11-13T02:15:23;101828.34;;;2.35;100.00
75656;BME280;64252;51.094;13.714;2022-11-13T02:18:09;101816.13;;;2.31;100.00
75656;BME280;64252;51.094;13.714;2022-11-13T02:21:17;101808.13;;;2.24;100.00
75656;BME280;64252;51.094;13.714;2022-11-13T02:27:05;101811.63;;;2.11;100.00
75656;BME280;64252;51.094;13.714;2022-11-13T02:29:50;101814.53;;;2.01;100.00
75656;BME280;64252;51.094;13.714;2022-11-13T02:32:34;101815.22;;;1.93;100.00
75656;BME280;64252;51.094;13.714;2022-11-13T02:35:21;101812.59;;;1.77;100.00
75656;BME280;64252;51.094;13.714;2022-11-13T02:38:07;101814.25;;;1.79;100.00
75656;BME280;64252;51.094;13.714;2022-11-13T02:40:51;101816.03;;;1.69;100.00
75656;BME280;64252;51.094;13.714;2022-11-13T02:43:35;101818.91;;;1.59;100.00
75656;BME280;64252;51.094;13.714;2022-11-13T02:46:19;101826.19;;;1.55;100.00
75656;BME280;64252;51.094;13.714;2022-11-13T02:49:03;101828.75;;;1.47;100.00
75656;BME280;64252;51.094;13.714;2022-11-13T02:51:48;101817.41;;;1.43;100.00
75656;BME280;64252;51.094;13.714;2022-11-13T02:54:32;101809.94;;;1.39;100.00
75656;BME280;64252;51.094;13.714;2022-11-13T02:57:16;101818.13;;;1.25;100.00
75656;BME280;64252;51.094;13.714;2022-11-13T03:00:00;101815.59;;;1.28;100.00
75656;BME280;64252;51.094;13.714;2022-11-13T03:02:44;101805.38;;;1.19;100.00
75656;BME280;64252;51.094;13.714;2022-11-13T03:05:28;101791.81;;;1.12;100.00
75656;BME280;64252;51.094;13.714;2022-11-13T03:08:12;101794.91;;;1.06;100.00
75656;BME280;64252;51.094;13.714;2022-11-13T03:10:56;101786.81;;;1.09;100.00
75656;BME280;64252;51.094;13.714;2022-11-13T03:13:40;101786.53;;;1.11;100.00
75656;BME280;64252;51.094;13.714;2022-11-13T03:16:24;101778.25;;;1.06;100.00
75656;BME280;64252;51.094;13.714;2022-11-13T03:19:08;101779.75;;;0.93;100.00
75656;BME280;64252;51.094;13.714;2022-11-13T03:21:52;101783.19;;;0.80;100.00
75656;BME280;64252;51.094;13.714;2022-11-13T03:24:36;101780.75;;;0.68;100.00
75656;BME280;64252;51.094;13.714;2022-11-13T03:27:20;101771.84;;;0.71;100.00
75656;BME280;64252;51.094;13.714;2022-11-13T03:30:05;101786.66;;;0.57;100.00
75656;BME280;64252;51.094;13.714;2022-11-13T03:32:56;101785.31;;;0.54;100.00
75656;BME280;64252;51.094;13.714;2022-11-13T03:35:41;101780.34;;;0.51;100.00
75656;BME280;64252;51.094;13.714;2022-11-13T03:38:25;101787.03;;;0.45;100.00
75656;BME280;64252;51.094;13.714;2022-11-13T03:41:09;101784.22;;;0.50;100.00
75656;BME280;64252;51.094;13.714;2022-11-13T03:43:54;101775.25;;;0.63;100.00
75656;BME280;64252;51.094;13.714;2022-11-13T03:46:37;101773.31;;;0.59;100.00
75656;BME280;64252;51.094;13.714;2022-11-13T03:49:21;101780.75;;;0.68;100.00
75656;BME280;64252;51.094;13.714;2022-11-13T03:52:05;101781.88;;;0.67;100.00
75656;BME280;64252;51.094;13.714;2022-11-13T03:54:49;101786.66;;;0.57;100.00
75656;BME280;64252;51.094;13.714;2022-11-13T03:57:33;101781.19;;;0.47;100.00
75656;BME280;64252;51.094;13.714;2022-11-13T04:00:17;101779.00;;;0.38;100.00
75656;BME280;64252;51.094;13.714;2022-11-13T04:03:01;101778.25;;;0.28;100.00
75656;BME280;64252;51.094;13.714;2022-11-13T04:05:48;101766.31;;;0.27;100.00
75656;BME280;64252;51.094;13.714;2022-11-13T04:08:32;101770.78;;;0.23;100.00
75656;BME280;64252;51.094;13.714;2022-11-13T04:11:16;101767.19;;;0.23;100.00
75656;BME280;64252;51.094;13.714;2022-11-13T04:14:00;101767.22;;;0.13;100.00
75656;BME280;64252;51.094;13.714;2022-11-13T04:16:44;101758.31;;;0.16;100.00
75656;BME280;64252;51.094;13.714;2022-11-13T04:19:28;101753.34;;;0.13;100.00
75656;BME280;64252;51.094;13.714;2022-11-13T04:22:12;101745.63;;;0.05;100.00
75656;BME280;64252;51.094;13.714;2022-11-13T04:24:56;101746.75;;;-0.02;100.00
75656;BME280;64252;51.094;13.714;2022-11-13T04:27:40;101743.34;;;0.12;100.00
75656;BME280;64252;51.094;13.714;2022-11-13T04:30:23;101744.19;;;0.07;100.00
75656;BME280;64252;51.094;13.714;2022-11-13T04:33:07;101745.63;;;0.05;100.00
75656;BME280;64252;51.094;13.714;2022-11-13T04:35:51;101739.03;;;-0.10;100.00
75656;BME280;64252;51.094;13.714;2022-11-13T04:38:35;101744.00;;;-0.07;100.00
75656;BME280;64252;51.094;13.714;2022-11-13T04:41:19;101736.78;;;-0.13;100.00
75656;BME280;64252;51.094;13.714;2022-11-13T04:44:22;101742.31;;;-0.03;100.00
75656;BME280;64252;51.094;13.714;2022-11-13T04:47:06;101741.25;;;-0.17;100.00
75656;BME280;64252;51.094;13.714;2022-11-13T04:49:50;101735.75;;;-0.27;100.00
75656;BME280;64252;51.094;13.714;2022-11-13T04:52:34;101739.38;;;-0.31;100.00
75656;BME280;64252;51.094;13.714;2022-11-13T04:55:18;101730.50;;;-0.28;100.00
75656;BME280;64252;51.094;13.714;2022-11-13T04:58:02;101736.84;;;-0.28;100.00
75656;BME280;64252;51.094;13.714;2022-11-13T05:00:46;101728.25;;;-0.21;100.00
75656;BME280;64252;51.094;13.714;2022-11-13T05:03:31;101729.06;;;-0.21;100.00
75656;BME280;64252;51.094;13.714;2022-11-13T05:06:15;101717.44;;;-0.28;100.00
75656;BME280;64252;51.094;13.714;2022-11-13T05:08:59;101714.66;;;-0.28;100.00
75656;BME280;64252;51.094;13.714;2022-11-13T05:11:43;101712.72;;;-0.32;100.00
75656;BME280;64252;51.094;13.714;2022-11-13T05:14:27;101715.81;;;-0.34;100.00
75656;BME280;64252;51.094;13.714;2022-11-13T05:17:11;101714.66;;;-0.28;100.00
75656;BME280;64252;51.094;13.714;2022-11-13T05:19:55;101712.47;;;-0.31;100.00
75656;BME280;64252;51.094;13.714;2022-11-13T05:22:39;101711.84;;;-0.23;100.00
75656;BME280;64252;51.094;13.714;2022-11-13T05:25:24;101710.25;;;-0.34;100.00
75656;BME280;64252;51.094;13.714;2022-11-13T05:28:08;101709.69;;;-0.31;100.00
75656;BME280;64252;51.094;13.714;2022-11-13T05:30:52;101710.78;;;-0.32;100.00
75656;BME280;64252;51.094;13.714;2022-11-13T05:33:37;101714.66;;;-0.28;100.00
75656;BME280;64252;51.094;13.714;2022-11-13T05:36:22;101707.75;;;-0.35;100.00
75656;BME280;64252;51.094;13.714;2022-11-13T05:39:06;101695.00;;;-0.36;100.00
75656;BME280;64252;51.094;13.714;2022-11-13T05:41:50;101701.41;;;-0.41;100.00
75656;BME280;64252;51.094;13.714;2022-11-13T05:44:34;101702.25;;;-0.46;100.00
75656;BME280;64252;51.094;13.714;2022-11-13T05:47:18;101705.88;;;-0.50;100.00
75656;BME280;64252;51.094;13.714;2022-11-13T05:50:02;101686.72;;;-0.47;100.00
75656;BME280;64252;51.094;13.714;2022-11-13T05:52:46;101689.22;;;-0.50;100.00
75656;BME280;64252;51.094;13.714;2022-11-13T05:55:30;101691.44;;;-0.47;100.00
75656;BME280;64252;51.094;13.714;2022-11-13T05:58:14;101697.56;;;-0.50;100.00
75656;BME280;64252;51.094;13.714;2022-11-13T06:01:21;101696.44;;;-0.49;100.00
75656;BME280;64252;51.094;13.714;2022-11-13T06:04:06;101702.56;;;-0.52;100.00
75656;BME280;64252;51.094;13.714;2022-11-13T06:06:50;101708.66;;;-0.55;100.00
75656;BME280;64252;51.094;13.714;2022-11-13T06:09:35;101705.63;;;-0.54;100.00
75656;BME280;64252;51.094;13.714;2022-11-13T06:12:19;101709.78;;;-0.61;100.00
75656;BME280;64252;51.094;13.714;2022-11-13T06:15:03;101698.69;;;-0.61;100.00
75656;BME280;64252;51.094;13.714;2022-11-13T06:17:47;101704.78;;;-0.54;100.00
75656;BME280;64252;51.094;13.714;2022-11-13T06:20:34;101712.56;;;-0.61;100.00
75656;BME280;64252;51.094;13.714;2022-11-13T06:23:18;101703.44;;;-0.62;100.00
75656;BME280;64252;51.094;13.714;2022-11-13T06:26:07;101697.06;;;-0.62;100.00
75656;BME280;64252;51.094;13.714;2022-11-13T06:28:51;101691.41;;;-0.42;100.00
75656;BME280;64252;51.094;13.714;2022-11-13T06:31:36;101688.34;;;-0.35;100.00
75656;BME280;64252;51.094;13.714;2022-11-13T06:34:20;101702.78;;;-0.33;100.00
75656;BME280;64252;51.094;13.714;2022-11-13T06:37:04;101699.47;;;-0.46;100.00
75656;BME280;64252;51.094;13.714;2022-11-13T06:39:48;101701.41;;;-0.46;100.00
75656;BME280;64252;51.094;13.714;2022-11-13T06:42:32;101699.44;;;-0.35;100.00
75656;BME280;64252;51.094;13.714;2022-11-13T06:45:16;101698.88;;;-0.37;100.00
75656;BME280;64252;51.094;13.714;2022-11-13T06:48:00;101698.03;;;-0.33;100.00
75656;BME280;64252;51.094;13.714;2022-11-13T06:50:44;101706.31;;;-0.23;100.00
75656;BME280;64252;51.094;13.714;2022-11-13T06:53:28;101693.03;;;-0.31;100.00
75656;BME280;64252;51.094;13.714;2022-11-13T06:56:12;101698.00;;;-0.28;100.00
75656;BME280;64252;51.094;13.714;2022-11-13T06:58:57;101699.13;;;-0.24;100.00
75656;BME280;64252;51.094;13.714;2022-11-13T07:01:40;101700.75;;;-0.23;100.00
75656;BME280;64252;51.094;13.714;2022-11-13T07:04:25;101695.16;;;-0.13;100.00
75656;BME280;64252;51.094;13.714;2022-11-13T07:07:08;101685.66;;;-0.02;100.00
75656;BME280;64252;51.094;13.714;2022-11-13T07:09:52;101692.28;;;0.08;100.00
75656;BME280;64252;51.094;13.714;2022-11-13T07:12:36;101696.13;;;0.12;100.00
75656;BME280;64252;51.094;13.714;2022-11-13T07:15:20;101693.91;;;0.14;100.00
75656;BME280;64252;51.094;13.714;2022-11-13T07:18:05;101695.00;;;0.18;100.00
75656;BME280;64252;51.094;13.714;2022-11-13T07:20:50;101686.28;;;0.29;100.00
75656;BME280;64252;51.094;13.714;2022-11-13T07:23:35;101691.56;;;0.31;100.00
75656;BME280;64252;51.094;13.714;2022-11-13T07:26:20;101688.16;;;0.39;100.00
75656;BME280;64252;51.094;13.714;2022-11-13T07:29:04;101689.16;;;0.53;100.00
75656;BME280;64252;51.094;13.714;2022-11-13T07:31:48;101686.28;;;0.63;100.00
75656;BME280;64252;51.094;13.714;2022-11-13T07:34:32;101697.66;;;0.67;100.00
75656;BME280;64252;51.094;13.714;2022-11-13T07:37:17;101695.06;;;0.75;100.00
75656;BME280;64252;51.094;13.714;2022-11-13T07:40:01;101696.06;;;0.89;100.00
75656;BME280;64252;51.094;13.714;2022-11-13T07:42:45;101685.38;;;1.02;100.00
75656;BME280;64252;51.094;13.714;2022-11-13T07:45:29;101685.28;;;1.12;100.00
75656;BME280;64252;51.094;13.714;2022-11-13T07:48:13;101685.47;;;1.20;100.00
75656;BME280;64252;51.094;13.714;2022-11-13T07:51:01;101686.47;;;1.29;100.00
75656;BME280;64252;51.094;13.714;2022-11-13T07:53:45;101675.53;;;1.38;100.00
75656;BME280;64252;51.094;13.714;2022-11-13T07:56:29;101672.56;;;1.53;100.00
75656;BME280;64252;51.094;13.714;2022-11-13T07:59:13;101678.44;;;1.70;99.11
75656;BME280;64252;51.094;13.714;2022-11-13T08:01:57;101679.97;;;1.82;98.48
75656;BME280;64252;51.094;13.714;2022-11-13T08:04:41;101666.50;;;1.89;97.80
75656;BME280;64252;51.094;13.714;2022-11-13T08:07:25;101657.19;;;1.98;97.86
75656;BME280;64252;51.094;13.714;2022-11-13T08:10:09;101665.94;;;2.10;96.37
75656;BME280;64252;51.094;13.714;2022-11-13T08:13:01;101661.25;;;2.25;95.62
75656;BME280;64252;51.094;13.714;2022-11-13T08:15:46;101659.16;;;2.35;96.47
75656;BME280;64252;51.094;13.714;2022-11-13T08:18:30;101658.44;;;2.43;96.78
75656;BME280;64252;51.094;13.714;2022-11-13T08:21:14;101656.84;;;2.56;96.02
75656;BME280;64252;51.094;13.714;2022-11-13T08:23:58;101660.59;;;2.65;94.23
75656;BME280;64252;51.094;13.714;2022-11-13T08:26:42;101663.41;;;2.79;95.13
75656;BME280;64252;51.094;13.714;2022-11-13T08:29:26;101651.78;;;2.90;94.81
75656;BME280;64252;51.094;13.714;2022-11-13T08:32:14;101651.88;;;2.99;93.92
75656;BME280;64252;51.094;13.714;2022-11-13T08:34:58;101651.78;;;3.04;92.41
75656;BME280;64252;51.094;13.714;2022-11-13T08:37:42;101648.19;;;3.17;92.79
75656;BME280;64252;51.094;13.714;2022-11-13T08:40:26;101648.53;;;3.29;92.81
75656;BME280;64252;51.094;13.714;2022-11-13T08:43:10;101655.44;;;3.45;91.64
75656;BME280;64252;51.094;13.714;2022-11-13T08:45:53;101650.97;;;3.58;91.12
75656;BME280;64252;51.094;13.714;2022-11-13T08:48:38;101657.38;;;3.72;90.73
75656;BME280;64252;51.094;13.714;2022-11-13T08:51:23;101654.16;;;3.79;89.09
75656;BME280;64252;51.094;13.714;2022-11-13T08:54:07;101653.31;;;3.92;87.96
75656;BME280;64252;51.094;13.714;2022-11-13T08:56:51;101641.78;;;4.07;87.69
75656;BME280;64252;51.094;13.714;2022-11-13T08:59:35;101634.06;;;4.26;87.77
75656;BME280;64252;51.094;13.714;2022-11-13T09:02:18;101640.44;;;4.40;86.97
75656;BME280;64252;51.094;13.714;2022-11-13T09:05:03;101636.88;;;4.49;86.13
75656;BME280;64252;51.094;13.714;2022-11-13T09:07:48;101631.84;;;4.59;84.75
75656;BME280;64252;51.094;13.714;2022-11-13T09:10:32;101638.03;;;4.70;83.82
75656;BME280;64252;51.094;13.714;2022-11-13T09:13:16;101629.03;;;4.81;83.68
75656;BME280;64252;51.094;13.714;2022-11-13T09:16:01;101622.19;;;4.96;84.16
75656;BME280;64252;51.094;13.714;2022-11-13T09:18:50;101638.13;;;5.18;82.71
75656;BME280;64252;51.094;13.714;2022-11-13T09:21:34;101642.59;;;5.27;82.00
75656;BME280;64252;51.094;13.714;2022-11-13T09:24:18;101632.78;;;5.39;81.21
75656;BME280;64252;51.094;13.714;2022-11-13T09:27:02;101637.63;;;5.55;81.24
75656;BME280;64252;51.094;13.714;2022-11-13T09:29:46;101629.22;;;5.64;80.78
75656;BME280;64252;51.094;13.714;2022-11-13T09:32:30;101622.00;;;5.80;79.94
75656;BME280;64252;51.094;13.714;2022-11-13T09:35:13;101623.38;;;6.00;79.48
75656;BME280;64252;51.094;13.714;2022-11-13T09:37:58;101629.34;;;6.15;79.86
75656;BME280;64252;51.094;13.714;2022-11-13T09:43:32;101630.47;;;6.32;78.19
75656;BME280;64252;51.094;13.714;2022-11-13T09:51:57;101624.50;;;6.76;77.02
75656;BME280;64252;51.094;13.714;2022-11-13T09:54:42;101623.50;;;6.81;76.86
75656;BME280;64252;51.094;13.714;2022-11-13T09:57:34;101615.75;;;6.86;75.83
75656;BME280;64252;51.094;13.714;2022-11-13T10:00:21;101619.19;;;6.92;75.52
75656;BME280;64252;51.094;13.714;2022-11-13T10:06:22;101612.31;;;7.19;76.15
75656;BME280;64252;51.094;13.714;2022-11-13T10:12:05;101609.47;;;7.27;74.44
75656;BME280;64252;51.094;13.714;2022-11-13T10:14:52;101599.53;;;7.38;74.87
75656;BME280;64252;51.094;13.714;2022-11-13T10:18:33;101606.63;;;7.36;75.10
75656;BME280;64252;51.094;13.714;2022-11-13T10:21:34;101592.44;;;7.62;74.45
75656;BME280;64252;51.094;13.714;2022-11-13T10:24:49;101595.88;;;7.67;74.33
75656;BME280;64252;51.094;13.714;2022-11-13T10:27:35;101593.41;;;7.66;74.32
75656;BME280;64252;51.094;13.714;2022-11-13T10:30:20;101586.19;;;7.85;74.66
75656;BME280;64252;51.094;13.714;2022-11-13T10:33:06;101590.41;;;7.91;74.08
75656;BME280;64252;51.094;13.714;2022-11-13T10:39:00;101583.84;;;8.08;73.36
75656;BME280;64252;51.094;13.714;2022-11-13T10:41:47;101576.78;;;8.23;72.56
75656;BME280;64252;51.094;13.714;2022-11-13T10:44:32;101567.13;;;8.32;72.93
75656;BME280;64252;51.094;13.714;2022-11-13T10:47:19;101568.47;;;8.47;73.46
75656;BME280;64252;51.094;13.714;2022-11-13T10:50:09;101568.16;;;8.61;72.31
75656;BME280;64252;51.094;13.714;2022-11-13T10:52:54;101561.31;;;8.50;72.79
75656;BME280;64252;51.094;13.714;2022-11-13T10:55:40;101562.44;;;8.69;72.36
75656;BME280;64252;51.094;13.714;2022-11-13T10:58:24;101547.22;;;8.82;71.54
75656;BME280;64252;51.094;13.714;2022-11-13T11:01:21;101552.41;;;8.93;71.45
75656;BME280;64252;51.094;13.714;2022-11-13T11:04:12;101541.94;;;9.05;70.75
75656;BME280;64252;51.094;13.714;2022-11-13T11:07:03;101533.38;;;9.14;70.27
75656;BME280;64252;51.094;13.714;2022-11-13T11:09:55;101517.06;;;9.19;71.84
75656;BME280;64252;51.094;13.714;2022-11-13T11:12:39;101527.06;;;9.29;70.53
75656;BME280;64252;51.094;13.714;2022-11-13T11:19:11;101521.88;;;9.43;71.26
75656;BME280;64252;51.094;13.714;2022-11-13T11:22:06;101518.72;;;9.45;70.49
75656;BME280;64252;51.094;13.714;2022-11-13T11:27:48;101504.97;;;9.55;70.44
75656;BME280;64252;51.094;13.714;2022-11-13T11:30:42;101499.56;;;9.50;70.07
75656;BME280;64252;51.094;13.714;2022-11-13T11:33:35;101497.44;;;9.47;71.01
75656;BME280;64252;51.094;13.714;2022-11-13T11:47:59;101497.22;;;9.40;70.11
75656;BME280;64252;51.094;13.714;2022-11-13T11:50:49;101486.78;;;9.41;69.23
75656;BME280;64252;51.094;13.714;2022-11-13T11:56:47;101490.66;;;9.24;70.15
75656;BME280;64252;51.094;13.714;2022-11-13T12:08:45;101496.28;;;9.00;69.90
75656;BME280;64252;51.094;13.714;2022-11-13T12:11:34;101484.06;;;8.96;70.96
75656;BME280;64252;51.094;13.714;2022-11-13T12:20:52;101472.22;;;8.78;71.78
75656;BME280;64252;51.094;13.714;2022-11-13T12:27:12;101456.72;;;8.72;72.76
75656;BME280;64252;51.094;13.714;2022-11-13T12:30:13;101455.88;;;8.71;72.88
75656;BME280;64252;51.094;13.714;2022-11-13T12:33:07;101446.72;;;8.62;72.35
75656;BME280;64252;51.094;13.714;2022-11-13T12:35:54;101445.13;;;8.61;73.62
75656;BME280;64252;51.094;13.714;2022-11-13T12:42:21;101447.44;;;8.71;71.74
75656;BME280;64252;51.094;13.714;2022-11-13T12:48:31;101448.56;;;9.43;69.80
75656;BME280;64252;51.094;13.714;2022-11-13T12:51:16;101446.16;;;9.69;68.91
75656;BME280;64252;51.094;13.714;2022-11-13T12:54:00;101450.06;;;9.65;68.21
75656;BME280;64252;51.094;13.714;2022-11-13T12:56:44;101445.34;;;9.17;69.81
75656;BME280;64252;51.094;13.714;2022-11-13T12:59:34;101435.59;;;8.78;71.80
75656;BME280;64252;51.094;13.714;2022-11-13T13:11:42;101415.91;;;8.21;75.11
75656;BME280;64252;51.094;13.714;2022-11-13T13:14:45;101425.50;;;8.20;74.29
75656;BME280;64252;51.094;13.714;2022-11-13T13:17:33;101429.97;;;8.21;74.85
75656;BME280;64252;51.094;13.714;2022-11-13T13:23:02;101415.44;;;8.19;75.06
75656;BME280;64252;51.094;13.714;2022-11-13T13:25:46;101407.22;;;8.14;75.45
75656;BME280;64252;51.094;13.714;2022-11-13T13:28:31;101410.88;;;8.14;75.18
75656;BME280;64252;51.094;13.714;2022-11-13T13:43:35;101398.75;;;8.02;76.03
75656;BME280;64252;51.094;13.714;2022-11-13T13:46:30;101389.84;;;8.00;77.77
75656;BME280;64252;51.094;13.714;2022-11-13T13:49:19;101391.00;;;7.99;76.66
75656;BME280;64252;51.094;13.714;2022-11-13T13:52:05;101387.72;;;7.97;76.57
75656;BME280;64252;51.094;13.714;2022-11-13T13:54:49;101383.72;;;7.98;76.87
75656;BME280;64252;51.094;13.714;2022-11-13T13:57:39;101375.56;;;8.05;77.14
75656;BME280;64252;51.094;13.714;2022-11-13T14:00:23;101380.59;;;8.11;76.37
75656;BME280;64252;51.094;13.714;2022-11-13T14:03:21;101380.00;;;8.06;76.43
75656;BME280;64252;51.094;13.714;2022-11-13T14:06:20;101384.06;;;7.96;77.25
75656;BME280;64252;51.094;13.714;2022-11-13T14:09:14;101372.59;;;7.89;77.90
75656;BME280;64252;51.094;13.714;2022-11-13T14:12:01;101378.75;;;7.82;77.72
75656;BME280;64252;51.094;13.714;2022-11-13T14:14:46;101384.59;;;7.77;79.56
75656;BME280;64252;51.094;13.714;2022-11-13T14:17:30;101386.47;;;7.73;79.13
75656;BME280;64252;51.094;13.714;2022-11-13T14:20:15;101386.66;;;7.68;79.17
75656;BME280;64252;51.094;13.714;2022-11-13T14:23:00;101384.22;;;7.67;79.38
75656;BME280;64252;51.094;13.714;2022-11-13T14:25:45;101382.91;;;7.64;79.45
75656;BME280;64252;51.094;13.714;2022-11-13T14:28:32;101383.34;;;7.54;79.84
75656;BME280;64252;51.094;13.714;2022-11-13T14:31:17;101373.28;;;7.53;80.12
75656;BME280;64252;51.094;13.714;2022-11-13T14:34:08;101369.13;;;7.38;80.68
75656;BME280;64252;51.094;13.714;2022-11-13T14:36:53;101371.19;;;7.29;81.12
75656;BME280;64252;51.094;13.714;2022-11-13T14:39:37;101367.03;;;7.27;81.10
75656;BME280;64252;51.094;13.714;2022-11-13T14:42:25;101358.81;;;7.22;81.96
75656;BME280;64252;51.094;13.714;2022-11-13T14:45:20;101358.16;;;7.25;81.27
75656;BME280;64252;51.094;13.714;2022-11-13T14:48:19;101362.00;;;7.20;82.11
75656;BME280;64252;51.094;13.714;2022-11-13T14:51:18;101354.31;;;7.09;82.12
75656;BME280;64252;51.094;13.714;2022-11-13T14:54:06;101348.44;;;7.01;82.80
75656;BME280;64252;51.094;13.714;2022-11-13T14:56:51;101349.78;;;6.95;82.96
75656;BME280;64252;51.094;13.714;2022-11-13T14:59:35;101346.88;;;6.83;83.84
75656;BME280;64252;51.094;13.714;2022-11-13T15:02:20;101350.56;;;6.75;83.67
75656;BME280;64252;51.094;13.714;2022-11-13T15:05:04;101344.69;;;6.68;83.71
75656;BME280;64252;51.094;13.714;2022-11-13T15:07:49;101338.84;;;6.52;85.01
75656;BME280;64252;51.094;13.714;2022-11-13T15:10:35;101338.50;;;6.54;85.05
75656;BME280;64252;51.094;13.714;2022-11-13T15:13:20;101346.94;;;6.54;84.73
75656;BME280;64252;51.094;13.714;2022-11-13T15:16:04;101332.44;;;6.43;85.77
75656;BME280;64252;51.094;13.714;2022-11-13T15:18:51;101341.50;;;6.49;84.89
75656;BME280;64252;51.094;13.714;2022-11-13T15:21:39;101340.22;;;6.38;85.19
75656;BME280;64252;51.094;13.714;2022-11-13T15:24:23;101337.91;;;6.40;85.32
75656;BME280;64252;51.094;13.714;2022-11-13T15:27:17;101335.31;;;6.35;86.30
75656;BME280;64252;51.094;13.714;2022-11-13T15:30:01;101340.09;;;6.34;85.46
75656;BME280;64252;51.094;13.714;2022-11-13T15:32:46;101343.91;;;6.30;86.11
75656;BME280;64252;51.094;13.714;2022-11-13T15:35:31;101340.59;;;6.28;85.71
75656;BME280;64252;51.094;13.714;2022-11-13T15:38:15;101344.97;;;6.16;86.88
75656;BME280;64252;51.094;13.714;2022-11-13T15:40:59;101338.34;;;6.12;86.96
75656;BME280;64252;51.094;13.714;2022-11-13T15:43:49;101336.91;;;6.06;86.94
75656;BME280;64252;51.094;13.714;2022-11-13T15:46:33;101335.72;;;6.07;87.11
75656;BME280;64252;51.094;13.714;2022-11-13T15:49:17;101338.34;;;6.12;87.89
75656;BME280;64252;51.094;13.714;2022-11-13T15:52:01;101341.84;;;6.09;87.70